Time;durP1;ratioP1;P1;durP2;ratioP2;P2;SDS_P1;SDS_P2;PMS_P1;PMS_P2;Temp;Humidity;BMP_temperature;BMP_pressure;BME280_temperature;BME280_humidity;BME280_pressure;Samples;Min_cycle;Max_cycle;Signal;HPM_P1;HPM_P2
2022/07/20 00:01:26;;;;;;;461.35;58.85;;;;;;;32.45;47.45;100732.00;4199559;28;20093;-59
2022/07/20 00:03:30;;;;;;;442.23;57.28;;;;;;;32.44;47.18;100736.00;4199630;28;20032;-59
2022/07/20 00:05:38;;;;;;;378.35;49.17;;;;;;;32.36;47.34;100732.97;4199238;28;20064;-59
2022/07/20 00:07:39;;;;;;;331.58;38.08;;;;;;;32.46;47.41;100744.97;4216227;28;20085;-59
2022/07/20 00:12:06;;;;;;;202.65;29.48;;;;;;;32.46;47.31;100753.47;4216820;28;20044;-59
2022/07/20 00:14:07;;;;;;;173.68;28.90;;;;;;;32.44;47.26;100762.34;4216270;28;20085;-59
2022/07/20 00:16:08;;;;;;;167.70;27.48;;;;;;;32.45;47.54;100754.66;4216225;28;20036;-59
2022/07/20 00:18:10;;;;;;;160.48;25.58;;;;;;;32.45;47.11;100760.34;4216317;28;20471;-59
2022/07/20 00:20:12;;;;;;;138.77;24.35;;;;;;;32.44;47.19;100753.84;4215859;28;20040;-59
2022/07/20 00:22:16;;;;;;;281.42;39.65;;;;;;;32.44;47.17;100765.19;4215877;28;20475;-59
2022/07/20 00:24:17;;;;;;;263.45;36.92;;;;;;;32.43;47.26;100757.03;4215783;28;20094;-59
2022/07/20 00:26:18;;;;;;;424.73;63.22;;;;;;;32.44;47.45;100764.31;4216182;28;20040;-59
2022/07/20 00:28:20;;;;;;;534.70;73.32;;;;;;;32.43;47.44;100757.84;4205188;28;20112;-59
2022/07/20 00:30:21;;;;;;;558.80;78.63;;;;;;;32.43;47.53;100754.19;4215588;28;20089;-59
2022/07/20 00:32:22;;;;;;;420.27;53.42;;;;;;;32.44;47.25;100750.16;4215898;28;20089;-59
2022/07/20 00:34:24;;;;;;;457.88;59.75;;;;;;;32.38;47.46;100749.63;4215972;28;20036;-59
2022/07/20 00:36:25;;;;;;;340.77;44.10;;;;;;;32.44;47.37;100755.81;4215287;28;20036;-59
2022/07/20 00:38:32;;;;;;;327.63;41.08;;;;;;;32.39;47.32;100751.25;4215680;28;20035;-59
2022/07/20 00:40:39;;;;;;;242.98;33.70;;;;;;;32.38;47.27;100753.28;4214736;28;20040;-59
2022/07/20 00:42:43;;;;;;;218.95;31.50;;;;;;;32.42;47.31;100761.88;4215593;28;20101;-59
2022/07/20 00:44:45;;;;;;;158.30;27.15;;;;;;;32.42;47.45;100758.22;4200982;28;20083;-59
2022/07/20 00:46:47;;;;;;;193.18;27.65;;;;;;;32.42;47.28;100764.69;4198878;28;20040;-59
2022/07/20 00:48:48;;;;;;;124.18;22.65;;;;;;;32.43;47.26;100765.53;4198827;28;20097;-59
2022/07/20 00:50:49;;;;;;;113.88;22.42;;;;;;;32.43;47.44;100762.69;4198951;28;20106;-59
2022/07/20 00:52:54;;;;;;;113.60;21.33;;;;;;;32.43;47.38;100762.69;4198928;28;20044;-59
2022/07/20 00:54:56;;;;;;;91.28;19.98;;;;;;;32.42;47.44;100767.53;4198747;28;20086;-59
2022/07/20 00:56:57;;;;;;;104.45;20.40;;;;;;;32.43;47.41;100768.34;4198899;28;20059;-59
2022/07/20 00:59:00;;;;;;;98.25;20.55;;;;;;;32.41;47.42;100774.38;4213236;28;20169;-59
2022/07/20 01:01:02;;;;;;;129.68;23.00;;;;;;;32.42;47.43;100781.69;4182592;28;20484;-59
2022/07/20 01:03:03;;;;;;;285.88;36.92;;;;;;;32.42;47.52;100780.88;4182289;28;20037;-59
2022/07/20 01:05:15;;;;;;;253.77;36.15;;;;;;;32.43;47.44;100793.84;4182440;28;20044;-59
2022/07/20 01:07:20;;;;;;;403.38;41.80;;;;;;;32.43;47.65;100793.84;4180637;28;20078;-59
2022/07/20 01:09:21;;;;;;;;;;;;;;;32.40;47.39;100789.75;4182248;28;20020;-59
2022/07/20 01:11:23;;;;;;;259.27;32.50;;;;;;;32.46;47.50;100787.47;4182685;28;19962;-59
2022/07/20 01:13:24;;;;;;;200.52;28.48;;;;;;;32.46;47.46;100784.63;4190983;28;20094;-60
2022/07/20 01:15:28;;;;;;;119.75;20.58;;;;;;;32.44;47.47;100775.66;4198222;28;20032;-59
2022/07/20 01:17:30;;;;;;;149.98;26.30;;;;;;;32.45;47.52;100785.81;4198139;28;20086;-59
2022/07/20 01:19:31;;;;;;;117.82;21.55;;;;;;;32.43;47.57;100791.81;4198066;28;20036;-59
2022/07/20 01:21:40;;;;;;;128.70;22.23;;;;;;;32.43;47.31;100803.16;4204034;28;20101;-59
2022/07/20 01:23:41;;;;;;;81.55;16.98;;;;;;;32.43;47.52;100810.84;4215208;28;20090;-59
2022/07/20 01:25:43;;;;;;;74.80;18.33;;;;;;;32.43;47.50;100808.00;4215396;28;20032;-59
2022/07/20 01:27:44;;;;;;;75.30;18.65;;;;;;;32.42;47.32;100809.19;4215242;28;20081;-59
2022/07/20 01:29:46;;;;;;;83.40;17.30;;;;;;;32.41;47.39;100811.22;4214523;28;20040;-59
2022/07/20 01:31:47;;;;;;;69.68;17.40;;;;;;;32.41;47.41;100811.22;4214966;28;20089;-59
2022/07/20 01:33:49;;;;;;;77.18;18.90;;;;;;;32.41;47.54;100816.06;4214684;28;20101;-59
2022/07/20 01:35:50;;;;;;;72.70;17.00;;;;;;;32.41;47.52;100816.88;4215493;28;20074;-59
2022/07/20 01:37:52;;;;;;;74.53;16.65;;;;;;;32.41;47.37;100818.88;4206079;28;20569;-59
2022/07/20 01:39:53;;;;;;;49.53;15.32;;;;;;;32.41;47.37;100833.03;4197874;28;20037;-59
2022/07/20 01:41:55;;;;;;;61.85;16.30;;;;;;;32.40;47.28;100825.75;4197776;28;20381;-59
2022/07/20 01:43:56;;;;;;;55.53;14.63;;;;;;;32.41;47.72;100830.22;4197776;28;20036;-59
2022/07/20 01:45:57;;;;;;;52.55;14.95;;;;;;;32.38;47.34;100829.72;4198210;28;20036;-59
2022/07/20 01:48:02;;;;;;;57.60;15.50;;;;;;;32.40;47.46;100840.72;4197568;28;20037;-59
2022/07/20 01:50:07;;;;;;;55.00;14.30;;;;;;;32.40;47.48;100843.56;4197714;28;20036;-58
2022/07/20 01:52:08;;;;;;;50.67;15.05;;;;;;;32.40;47.58;100839.91;4197492;28;20082;-59
2022/07/20 01:54:11;;;;;;;50.35;14.50;;;;;;;32.41;47.59;100855.69;4198120;28;20032;-59
2022/07/20 01:56:12;;;;;;;37.63;13.18;;;;;;;32.41;47.58;100850.03;4196936;28;20431;-59
2022/07/20 01:58:16;;;;;;;44.95;13.80;;;;;;;32.36;47.41;100845.44;4197956;28;20476;-59
2022/07/20 02:00:18;;;;;;;41.15;13.55;;;;;;;32.40;47.59;100865.38;4197050;28;20118;-59
2022/07/20 02:02:19;;;;;;;34.70;12.35;;;;;;;32.37;47.69;100867.75;4197671;28;20476;-59
2022/07/20 02:04:29;;;;;;;42.58;12.80;;;;;;;32.39;47.38;100864.53;4197013;28;20044;-59
2022/07/20 02:06:31;;;;;;;37.72;13.27;;;;;;;32.31;47.60;100852.19;4196749;28;20029;-59
2022/07/20 02:08:32;;;;;;;30.98;11.68;;;;;;;32.41;47.78;100864.19;4209939;28;20032;-59
2022/07/20 02:10:37;;;;;;;38.15;12.93;;;;;;;32.39;47.58;100856.03;4214522;28;20368;-60
2022/07/20 02:12:38;;;;;;;;;;;;;;;32.36;47.64;100863.25;4214832;28;20545;-59
2022/07/20 02:14:39;;;;;;;33.30;12.82;;;;;;;32.36;47.41;100849.06;4188666;28;20892;-59
2022/07/20 02:16:41;;;;;;;34.92;12.02;;;;;;;32.42;47.64;100858.16;4181166;28;20037;-59
2022/07/20 02:18:49;;;;;;;35.08;11.63;;;;;;;32.42;47.46;100860.16;4180734;28;20049;-59
2022/07/20 02:20:50;;;;;;;34.92;11.35;;;;;;;32.39;47.49;100870.19;4181490;28;20048;-67
2022/07/20 02:22:52;;;;;;;30.05;11.50;;;;;;;32.34;47.59;100862.75;4181116;28;20032;-67
2022/07/20 02:24:53;;;;;;;31.95;12.10;;;;;;;32.40;47.62;100871.06;4181231;28;20041;-67
2022/07/20 02:26:57;;;;;;;20.20;11.35;;;;;;;32.39;47.55;100864.53;4181440;28;20460;-67
2022/07/20 02:28:59;;;;;;;22.55;10.88;;;;;;;32.39;47.65;100864.53;4180978;28;20098;-66
2022/07/20 02:31:01;;;;;;;25.52;10.77;;;;;;;32.34;47.65;100857.09;4180967;28;20041;-66
2022/07/20 02:33:02;;;;;;;24.65;11.52;;;;;;;32.36;47.37;100863.25;4180758;28;20059;-66
2022/07/20 02:35:07;;;;;;;22.98;10.93;;;;;;;32.38;47.41;100869.38;4181129;28;20041;-66
2022/07/20 02:37:11;;;;;;;20.02;10.52;;;;;;;32.38;47.41;100869.38;4191009;28;20081;-67
2022/07/20 02:39:12;;;;;;;21.83;10.60;;;;;;;32.38;47.54;100868.56;4213945;28;20368;-66
2022/07/20 02:41:14;;;;;;;19.67;10.40;;;;;;;32.38;47.44;100868.56;4214155;28;20094;-66
2022/07/20 02:43:15;;;;;;;21.50;10.75;;;;;;;32.38;47.69;100862.91;4211437;28;20039;-67
2022/07/20 02:45:16;;;;;;;21.10;10.07;;;;;;;32.37;47.63;100866.91;4180853;28;20049;-66
2022/07/20 02:47:18;;;;;;;19.90;10.25;;;;;;;32.38;47.66;100869.38;4181189;28;20098;-67
2022/07/20 02:49:21;;;;;;;27.48;11.68;;;;;;;32.36;47.67;100866.06;4180372;28;20045;-66
2022/07/20 02:51:23;;;;;;;25.15;11.27;;;;;;;32.32;47.72;100862.31;4180665;28;20041;-66
2022/07/20 02:53:26;;;;;;;25.75;10.65;;;;;;;32.37;47.79;100867.75;4180981;28;20037;-67
2022/07/20 02:55:28;;;;;;;22.52;10.10;;;;;;;32.37;47.79;100862.06;4181023;28;20113;-66
2022/07/20 02:57:29;;;;;;;23.23;11.07;;;;;;;32.36;47.81;100866.06;4180881;28;20041;-66
2022/07/20 02:59:32;;;;;;;21.15;9.50;;;;;;;32.37;47.53;100876.25;4180276;28;20477;-67
2022/07/20 03:01:34;;;;;;;14.13;9.38;;;;;;;32.36;47.62;100870.91;4180580;28;20049;-66
2022/07/20 03:03:35;;;;;;;19.05;11.10;;;;;;;32.36;47.90;100871.72;4180717;28;20443;-66
2022/07/20 03:05:37;;;;;;;16.95;9.45;;;;;;;32.33;47.84;100872.44;4180958;28;20037;-67
2022/07/20 03:07:39;;;;;;;14.13;10.13;;;;;;;32.35;48.28;100881.41;4199269;28;20094;-66
2022/07/20 03:09:43;;;;;;;18.23;9.63;;;;;;;32.35;47.82;100881.41;4217117;28;20040;-66
2022/07/20 03:11:44;;;;;;;16.25;9.85;;;;;;;32.35;47.78;100870.09;4217147;28;20090;-67
2022/07/20 03:13:49;;;;;;;15.68;9.75;;;;;;;32.36;47.57;100877.41;4205959;28;20033;-66
2022/07/20 03:15:50;;;;;;;15.88;9.98;;;;;;;32.28;47.76;100863.41;4183838;28;20037;-66
2022/07/20 03:17:53;;;;;;;16.67;10.07;;;;;;;32.37;47.60;100878.25;4183638;28;20445;-66
2022/07/20 03:19:55;;;;;;;21.55;9.90;;;;;;;32.30;47.59;100869.50;4183636;28;20439;-66
2022/07/20 03:21:56;;;;;;;18.58;9.88;;;;;;;32.36;47.53;100880.22;4183738;28;20099;-67
2022/07/20 03:23:58;;;;;;;18.88;10.05;;;;;;;32.36;47.77;100888.72;4183571;28;20095;-66
2022/07/20 03:25:59;;;;;;;13.13;9.52;;;;;;;32.34;47.90;100879.75;4183523;28;20045;-66
2022/07/20 03:28:03;;;;;;;18.80;10.55;;;;;;;32.31;47.91;100879.66;4183689;28;20079;-66
2022/07/20 03:30:07;;;;;;;;;;;;;;;32.32;47.70;100879.31;4184087;28;20079;-66
2022/07/20 03:32:09;;;;;;;12.90;9.77;;;;;;;32.34;47.71;100874.09;4183576;28;20342;-66
2022/07/20 03:34:10;;;;;;;15.10;9.70;;;;;;;32.37;47.83;100890.41;4183526;28;20476;-66
2022/07/20 03:36:11;;;;;;;18.98;9.07;;;;;;;32.34;47.97;100882.59;4183651;28;20093;-67
2022/07/20 03:38:13;;;;;;;13.00;9.10;;;;;;;32.35;47.71;100880.59;4210555;28;20407;-67
2022/07/20 03:40:14;;;;;;;11.25;8.95;;;;;;;32.35;47.88;100881.41;4216537;28;20040;-66
2022/07/20 03:42:16;;;;;;;13.27;9.20;;;;;;;32.32;47.82;100890.63;4216857;28;20044;-66
2022/07/20 03:44:18;;;;;;;14.05;9.25;;;;;;;32.30;47.83;100890.19;4197087;28;20103;-67
2022/07/20 03:46:19;;;;;;;12.63;9.50;;;;;;;32.33;47.77;100888.63;4194626;28;20048;-66
2022/07/20 03:48:20;;;;;;;11.77;8.57;;;;;;;32.33;47.90;100891.44;4199539;28;20117;-66
2022/07/20 03:50:24;;;;;;;13.40;8.98;;;;;;;32.32;47.79;100884.97;4199555;28;20098;-67
2022/07/20 03:52:29;;;;;;;11.13;8.73;;;;;;;32.33;47.91;100886.59;4199823;28;20048;-67
2022/07/20 03:54:30;;;;;;;21.92;10.32;;;;;;;32.32;47.96;100886.97;4199406;28;20040;-67
2022/07/20 03:56:31;;;;;;;12.27;8.38;;;;;;;32.32;47.67;100887.78;4200092;28;20379;-67
2022/07/20 03:58:32;;;;;;;12.18;8.60;;;;;;;32.32;48.06;100893.47;4199459;28;20044;-65
2022/07/20 04:00:34;;;;;;;9.35;8.38;;;;;;;32.23;47.55;100867.31;4199260;28;20033;-65
2022/07/20 04:02:36;;;;;;;13.02;8.75;;;;;;;32.32;47.77;100881.31;4199568;28;20410;-66
2022/07/20 04:04:37;;;;;;;11.75;9.40;;;;;;;32.32;47.97;100884.97;4199708;28;20476;-66
2022/07/20 04:06:39;;;;;;;11.20;8.57;;;;;;;32.32;48.14;100884.97;4199725;28;20028;-66
2022/07/20 04:08:40;;;;;;;10.88;8.60;;;;;;;32.25;47.88;100869.78;4215091;28;20475;-66
2022/07/20 04:10:44;;;;;;;11.80;8.05;;;;;;;32.28;47.81;100874.72;4206624;28;20098;-66
2022/07/20 04:12:45;;;;;;;10.70;8.75;;;;;;;32.29;48.22;100882.84;4199808;28;20476;-66
2022/07/20 04:14:49;;;;;;;10.80;8.77;;;;;;;32.30;48.15;100884.50;4199567;28;20063;-66
2022/07/20 04:16:51;;;;;;;12.18;8.57;;;;;;;32.30;48.13;100890.19;4200292;28;20086;-66
2022/07/20 04:18:52;;;;;;;11.18;8.35;;;;;;;32.30;48.10;100884.50;4198858;28;20177;-66
2022/07/20 04:20:53;;;;;;;10.05;9.02;;;;;;;32.29;48.12;100879.19;4186146;28;20053;-66
2022/07/20 04:22:54;;;;;;;11.32;8.80;;;;;;;32.29;48.22;100876.38;4182778;28;20511;-66
2022/07/20 04:24:58;;;;;;;10.40;8.80;;;;;;;32.25;48.03;100876.25;4182892;28;20033;-66
2022/07/20 04:27:00;;;;;;;10.23;8.82;;;;;;;32.27;48.12;100879.56;4182466;28;20045;-66
2022/07/20 04:29:02;;;;;;;10.27;8.43;;;;;;;32.04;48.36;100838.84;4182315;28;20083;-66
2022/07/20 04:31:03;;;;;;;10.80;8.32;;;;;;;32.22;48.18;100865.66;4182679;28;20037;-66
2022/07/20 04:33:05;;;;;;;12.77;9.23;;;;;;;32.27;48.16;100879.56;4182328;28;20044;-66
2022/07/20 04:35:07;;;;;;;9.77;7.80;;;;;;;32.27;48.20;100879.56;4182787;28;20036;-66
2022/07/20 04:37:08;;;;;;;10.50;8.75;;;;;;;32.27;48.16;100878.75;4182717;28;20041;-66
2022/07/20 04:39:12;;;;;;;11.20;9.30;;;;;;;32.27;48.15;100890.88;4182415;28;20091;-66
2022/07/20 04:41:16;;;;;;;11.07;9.38;;;;;;;32.20;47.87;100862.34;4182667;28;20037;-66
2022/07/20 04:43:18;;;;;;;9.63;8.40;;;;;;;32.28;47.93;100881.22;4182147;28;20090;-65
2022/07/20 04:45:21;;;;;;;9.73;8.73;;;;;;;32.28;47.96;100884.03;4182410;28;20522;-66
2022/07/20 04:47:23;;;;;;;9.68;8.68;;;;;;;32.28;48.22;100886.88;4205029;28;20437;-65
2022/07/20 04:49:24;;;;;;;9.80;8.80;;;;;;;32.28;48.00;100886.03;4214885;28;20028;-66
2022/07/20 04:51:26;;;;;;;10.18;8.20;;;;;;;32.27;48.13;100879.56;4214340;28;20113;-66
2022/07/20 04:53:28;;;;;;;10.57;8.55;;;;;;;32.27;48.09;100878.75;4215347;28;20424;-65
2022/07/20 04:55:29;;;;;;;9.60;8.70;;;;;;;32.26;48.04;100880.75;4215295;28;20032;-66
2022/07/20 04:57:30;;;;;;;9.68;8.45;;;;;;;32.27;48.28;100879.56;4215158;28;20040;-66
2022/07/20 04:59:35;;;;;;;10.20;8.35;;;;;;;32.26;48.02;100872.25;4215071;28;20097;-66
2022/07/20 05:01:36;;;;;;;9.55;8.48;;;;;;;32.24;48.04;100873.78;4215493;28;20044;-66
2022/07/20 05:03:38;;;;;;;10.43;8.57;;;;;;;32.21;48.13;100866.84;4215608;28;20036;-66
2022/07/20 05:05:39;;;;;;;9.15;8.25;;;;;;;32.22;47.89;100865.66;4215591;28;20093;-66
2022/07/20 05:07:41;;;;;;;11.43;8.50;;;;;;;32.20;48.23;100868.03;4215403;28;20125;-66
2022/07/20 05:09:42;;;;;;;8.73;7.93;;;;;;;32.24;48.23;100874.63;4215213;28;20461;-66
2022/07/20 05:11:44;;;;;;;8.77;7.88;;;;;;;32.25;48.02;100875.44;4215444;28;20085;-66
2022/07/20 05:13:48;;;;;;;9.27;8.35;;;;;;;32.24;48.16;100874.63;4215148;28;20085;-66
2022/07/20 05:15:52;;;;;;;9.77;8.77;;;;;;;32.25;48.33;100870.59;4215266;28;20044;-65
2022/07/20 05:17:54;;;;;;;8.82;8.02;;;;;;;32.25;48.18;100866.94;4199495;28;20041;-66
2022/07/20 05:19:55;;;;;;;9.77;8.85;;;;;;;32.24;48.39;100863.28;4197933;28;20110;-66
2022/07/20 05:21:57;;;;;;;10.20;9.20;;;;;;;32.24;48.33;100862.47;4198598;28;20040;-66
2022/07/20 05:23:58;;;;;;;9.10;8.20;;;;;;;32.23;48.30;100855.97;4198123;28;20052;-65
2022/07/20 05:26:00;;;;;;;9.88;9.02;;;;;;;32.23;48.18;100861.66;4198265;28;20040;-66
2022/07/20 05:28:01;;;;;;;9.05;8.15;;;;;;;32.19;48.31;100855.06;4198466;28;20435;-65
2022/07/20 05:30:04;;;;;;;9.63;8.63;;;;;;;32.22;48.02;100853.53;4198222;28;20028;-65
2022/07/20 05:32:07;;;;;;;8.63;7.65;;;;;;;32.22;47.99;100859.19;4197209;28;20105;-66
2022/07/20 05:34:08;;;;;;;11.13;8.90;;;;;;;32.22;48.19;100859.19;4198424;28;20492;-66
2022/07/20 05:36:13;;;;;;;9.52;8.50;;;;;;;32.21;48.12;100846.19;4198180;28;20098;-65
2022/07/20 05:38:15;;;;;;;10.73;8.40;;;;;;;32.23;47.97;100855.16;4198220;28;20114;-66
2022/07/20 05:40:17;;;;;;;8.88;7.97;;;;;;;32.22;48.08;100851.50;4197957;28;20040;-65
2022/07/20 05:42:18;;;;;;;9.15;8.25;;;;;;;32.22;48.22;100860.00;4198191;28;20086;-65
2022/07/20 05:44:19;;;;;;;9.57;8.65;;;;;;;32.21;48.21;100858.38;4198197;28;20101;-66
2022/07/20 05:46:23;;;;;;;9.45;8.55;;;;;;;32.21;48.14;100857.50;4199151;28;20169;-66
2022/07/20 05:48:25;;;;;;;9.43;8.40;;;;;;;31.85;48.23;100789.41;4213652;28;20112;-66
2022/07/20 05:50:32;;;;;;;8.45;7.68;;;;;;;32.14;48.18;100841.16;4213659;28;20032;-66
2022/07/20 05:52:33;;;;;;;9.55;7.85;;;;;;;32.21;48.26;100849.03;4214817;28;20048;-66
2022/07/20 05:54:34;;;;;;;9.27;8.43;;;;;;;32.21;48.51;100852.72;4214641;28;20036;-66
2022/07/20 05:56:36;;;;;;;9.10;8.27;;;;;;;32.19;48.31;100849.38;4214508;28;20040;-66
2022/07/20 05:58:38;;;;;;;8.80;8.00;;;;;;;32.19;48.27;100855.06;4214394;28;20036;-66
2022/07/20 06:00:42;;;;;;;9.35;8.45;;;;;;;32.17;48.34;100848.94;4214721;28;20184;-66
2022/07/20 06:02:44;;;;;;;8.68;7.78;;;;;;;32.19;48.31;100843.72;4214687;28;20097;-67
2022/07/20 06:04:48;;;;;;;9.05;8.20;;;;;;;32.19;48.17;100852.22;4214489;28;20437;-66
2022/07/20 06:06:49;;;;;;;8.73;7.93;;;;;;;32.13;48.13;100843.19;4214699;28;20430;-66
2022/07/20 06:08:50;;;;;;;8.77;7.97;;;;;;;32.20;48.17;100856.69;4214056;28;20086;-66
2022/07/20 06:10:52;;;;;;;8.38;7.57;;;;;;;32.14;48.33;100846.81;4214470;28;20032;-66
2022/07/20 06:12:55;;;;;;;8.80;8.00;;;;;;;32.15;48.31;100848.47;4214239;28;20043;-66
2022/07/20 06:15:02;;;;;;;8.45;7.70;;;;;;;32.17;48.36;100840.44;4214464;28;20472;-66
2022/07/20 06:17:11;;;;;;;8.48;7.68;;;;;;;32.18;48.38;100836.44;4203551;28;20546;-66
2022/07/20 06:19:13;;;;;;;8.38;7.57;;;;;;;32.18;48.33;100836.44;4197240;28;20090;-67
2022/07/20 06:21:16;;;;;;;8.48;7.68;;;;;;;32.13;48.37;100829.03;4197244;28;20472;-67
2022/07/20 06:23:18;;;;;;;9.80;8.40;;;;;;;32.18;48.45;100839.25;4197667;28;20101;-66
2022/07/20 06:25:19;;;;;;;9.45;8.48;;;;;;;32.15;48.39;100825.81;4197742;28;20041;-67
2022/07/20 06:27:20;;;;;;;8.57;7.88;;;;;;;32.17;48.49;100828.31;4197404;28;20037;-66
2022/07/20 06:29:22;;;;;;;9.50;7.93;;;;;;;32.10;48.44;100824.06;4196965;28;20040;-67
2022/07/20 06:31:24;;;;;;;8.55;7.82;;;;;;;32.16;48.49;100827.47;4197531;28;20041;-66
2022/07/20 06:33:26;;;;;;;8.80;7.90;;;;;;;32.17;48.41;100819.81;4197448;28;20078;-66
2022/07/20 06:35:27;;;;;;;8.55;7.75;;;;;;;32.15;48.23;100822.97;4197208;28;20036;-66
2022/07/20 06:37:32;;;;;;;9.15;8.10;;;;;;;32.11;48.24;100807.91;4197617;28;20040;-66
2022/07/20 06:39:33;;;;;;;;;;;;;;;32.14;47.98;100818.50;4197665;28;20074;-66
2022/07/20 06:41:34;;;;;;;8.80;8.00;;;;;;;32.12;48.30;100801.09;4198013;28;19989;-66
2022/07/20 06:43:35;;;;;;;9.10;8.30;;;;;;;32.20;48.33;100811.41;4201535;28;20314;-66
2022/07/20 06:45:37;;;;;;;8.95;8.15;;;;;;;32.18;48.14;100807.31;4202991;28;20036;-66
2022/07/20 06:47:38;;;;;;;8.77;7.93;;;;;;;32.08;48.44;100791.66;4218065;28;20081;-69
2022/07/20 06:49:40;;;;;;;8.80;7.97;;;;;;;32.16;48.17;100807.63;4219481;28;20036;-67
2022/07/20 06:51:41;;;;;;;8.55;7.75;;;;;;;32.15;48.14;100808.84;4219825;28;20078;-67
2022/07/20 06:53:43;;;;;;;8.70;7.93;;;;;;;32.16;48.20;100804.81;4219455;28;20044;-66
2022/07/20 06:55:53;;;;;;;8.90;8.10;;;;;;;32.16;48.30;100798.31;4218129;28;20425;-66
2022/07/20 06:57:54;;;;;;;7.82;7.05;;;;;;;32.14;48.30;100798.69;4219580;28;20044;-66
2022/07/20 06:59:56;;;;;;;8.07;7.38;;;;;;;32.13;48.30;100800.72;4219528;28;20044;-67
2022/07/20 07:02:00;;;;;;;8.90;8.05;;;;;;;32.12;48.30;100809.56;4219167;28;20097;-66
2022/07/20 07:04:01;;;;;;;7.82;7.22;;;;;;;32.14;48.42;100801.53;4219819;28;20085;-66
2022/07/20 07:06:08;;;;;;;8.02;7.32;;;;;;;32.13;48.04;100803.53;4219441;28;20040;-66
2022/07/20 07:08:09;;;;;;;8.30;7.50;;;;;;;32.14;48.11;100801.53;4219803;28;20050;-66
2022/07/20 07:10:13;;;;;;;8.10;7.40;;;;;;;32.12;48.29;100798.25;4218885;28;20109;-66
2022/07/20 07:12:14;;;;;;;7.55;6.85;;;;;;;32.12;48.28;100795.41;4219307;28;20101;-66
2022/07/20 07:14:16;;;;;;;8.18;7.47;;;;;;;32.14;48.14;100790.22;4219660;28;20253;-67
2022/07/20 07:16:20;;;;;;;7.65;6.95;;;;;;;32.11;48.15;100793.75;4214398;28;20094;-66
2022/07/20 07:18:21;;;;;;;7.85;7.18;;;;;;;32.11;48.20;100802.25;4202704;28;20044;-66
2022/07/20 07:20:23;;;;;;;7.88;7.15;;;;;;;32.10;48.25;100797.78;4202199;28;20441;-67
2022/07/20 07:22:34;;;;;;;8.32;7.50;;;;;;;32.10;48.07;100792.13;4202203;28;20086;-66
2022/07/20 07:24:36;;;;;;;7.75;7.05;;;;;;;32.10;48.12;100801.44;4202671;28;20037;-66
2022/07/20 07:26:37;;;;;;;7.68;7.00;;;;;;;32.08;48.04;100795.31;4202727;28;20040;-66
2022/07/20 07:28:39;;;;;;;7.68;6.97;;;;;;;32.10;47.91;100792.94;4202259;28;20036;-67
2022/07/20 07:30:40;;;;;;;7.90;7.10;;;;;;;32.11;47.97;100796.59;4202528;28;20041;-66
2022/07/20 07:32:41;;;;;;;7.65;6.65;;;;;;;32.10;47.97;100794.94;4202757;28;20398;-66
2022/07/20 07:34:45;;;;;;;7.90;7.07;;;;;;;32.10;48.09;100797.78;4202620;28;20036;-67
2022/07/20 07:36:53;;;;;;;6.88;6.28;;;;;;;32.10;47.92;100800.59;4202792;28;20113;-66
2022/07/20 07:38:54;;;;;;;7.18;6.57;;;;;;;32.11;47.89;100796.59;4202474;28;20085;-66
2022/07/20 07:40:58;;;;;;;8.00;7.30;;;;;;;32.06;47.98;100783.50;4202353;28;20098;-66
2022/07/20 07:42:59;;;;;;;7.53;6.60;;;;;;;32.09;47.86;100776.31;4202668;28;20062;-66
2022/07/20 07:45:06;;;;;;;7.43;6.72;;;;;;;32.06;47.96;100779.88;4202742;28;20434;-66
2022/07/20 07:47:10;;;;;;;7.82;7.03;;;;;;;32.08;47.97;100781.16;4203636;28;20110;-66
2022/07/20 07:49:12;;;;;;;6.78;6.18;;;;;;;32.09;47.88;100776.31;4202278;28;20422;-66
2022/07/20 07:51:13;;;;;;;7.22;6.53;;;;;;;32.07;47.95;100773.88;4202464;28;20036;-66
2022/07/20 07:53:14;;;;;;;7.38;6.68;;;;;;;32.01;47.86;100774.47;4202532;28;20098;-66
2022/07/20 07:55:16;;;;;;;7.15;6.50;;;;;;;32.04;47.73;100773.75;4199375;28;20086;-66
2022/07/20 07:57:22;;;;;;;7.75;7.05;;;;;;;32.07;47.77;100781.50;4199985;28;20110;-66
2022/07/20 07:59:24;;;;;;;7.45;6.80;;;;;;;31.81;47.79;100734.69;4199508;28;20169;-66
2022/07/20 08:01:28;;;;;;;7.28;6.57;;;;;;;32.07;47.99;100778.66;4199369;28;20488;-67
2022/07/20 08:03:29;;;;;;;7.65;6.97;;;;;;;32.05;47.92;100769.72;4199683;28;20093;-66
2022/07/20 08:05:31;;;;;;;7.07;6.47;;;;;;;32.07;47.79;100767.34;4199922;28;20496;-66
2022/07/20 08:07:36;;;;;;;6.78;6.18;;;;;;;32.06;47.99;100768.53;4199594;28;20036;-66
2022/07/20 08:09:37;;;;;;;7.13;6.43;;;;;;;32.06;47.96;100775.03;4199394;28;20041;-67
2022/07/20 08:11:47;;;;;;;6.80;6.13;;;;;;;32.05;47.69;100781.88;4199603;28;20517;-66
2022/07/20 08:13:49;;;;;;;7.10;6.50;;;;;;;32.06;47.80;100777.03;4199558;28;20045;-66
2022/07/20 08:15:50;;;;;;;7.13;6.45;;;;;;;32.02;47.74;100776.94;4200626;28;20526;-66
2022/07/20 08:17:51;;;;;;;7.50;6.80;;;;;;;32.05;47.69;100776.22;4199779;28;20061;-66
2022/07/20 08:19:53;;;;;;;7.38;6.75;;;;;;;32.04;47.77;100787.91;4199206;28;20040;-66
2022/07/20 08:21:54;;;;;;;6.55;5.95;;;;;;;32.05;47.87;100781.06;4199613;28;20045;-67
2022/07/20 08:23:55;;;;;;;6.97;6.28;;;;;;;32.04;47.87;100787.91;4199325;28;20040;-66
2022/07/20 08:25:57;;;;;;;6.88;6.28;;;;;;;31.97;47.86;100777.19;4199282;28;20041;-67
2022/07/20 08:28:14;;;;;;;6.60;6.00;;;;;;;32.02;47.55;100776.09;4199420;28;20032;-66
2022/07/20 08:30:19;;;;;;;6.78;6.22;;;;;;;32.04;47.79;100790.75;4199107;28;20507;-66
2022/07/20 08:32:21;;;;;;;7.57;6.25;;;;;;;32.04;47.57;100785.06;4198041;28;20439;-66
2022/07/20 08:34:22;;;;;;;6.75;6.15;;;;;;;32.03;47.86;100789.91;4199067;28;20597;-66
2022/07/20 08:36:24;;;;;;;6.80;6.20;;;;;;;32.02;47.85;100793.91;4199409;28;20041;-67
2022/07/20 08:38:25;;;;;;;7.40;6.75;;;;;;;32.02;47.67;100793.09;4199313;28;20541;-66
2022/07/20 08:40:28;;;;;;;6.93;6.32;;;;;;;32.00;47.83;100789.81;4199000;28;20040;-66
2022/07/20 08:42:29;;;;;;;6.60;6.05;;;;;;;31.95;47.94;100785.22;4199639;28;20456;-66
2022/07/20 08:44:30;;;;;;;7.53;6.82;;;;;;;32.02;47.31;100793.09;4199365;28;20086;-66
2022/07/20 08:46:34;;;;;;;7.10;6.47;;;;;;;32.01;47.52;100792.28;4208579;28;20115;-66
2022/07/20 08:48:36;;;;;;;6.40;5.90;;;;;;;32.01;47.62;100791.44;4215211;28;20044;-66
2022/07/20 08:50:38;;;;;;;7.15;6.55;;;;;;;31.99;47.39;100793.81;4215903;28;20047;-66
2022/07/20 08:52:39;;;;;;;7.15;6.55;;;;;;;31.96;47.53;100783.22;4215613;28;20093;-66
2022/07/20 08:54:41;;;;;;;6.70;6.00;;;;;;;32.00;47.88;100801.13;4214983;28;20463;-66
2022/07/20 08:56:42;;;;;;;6.95;6.25;;;;;;;31.97;47.50;100793.34;4215304;28;20101;-66
2022/07/20 08:58:43;;;;;;;6.82;6.28;;;;;;;31.95;47.73;100799.38;4214917;28;20093;-66
2022/07/20 09:00:45;;;;;;;6.20;5.60;;;;;;;31.99;47.52;100799.50;4215480;28;20101;-67
2022/07/20 09:03:07;;;;;;;6.18;5.57;;;;;;;31.95;47.53;100801.41;4215314;28;20047;-66
2022/07/20 09:05:10;;;;;;;6.20;5.70;;;;;;;31.99;47.52;100810.81;4215338;28;20121;-67
2022/07/20 09:07:14;;;;;;;5.95;5.45;;;;;;;31.99;47.49;100810.81;4215407;28;20044;-66
2022/07/20 09:09:20;;;;;;;6.97;6.28;;;;;;;31.98;47.84;100809.13;4214184;28;20101;-66
2022/07/20 09:11:27;;;;;;;5.95;5.45;;;;;;;31.97;47.72;100802.66;4215626;28;20036;-66
2022/07/20 09:13:35;;;;;;;6.65;6.05;;;;;;;31.98;47.67;100803.47;4215479;28;20074;-66
2022/07/20 09:15:48;;;;;;;6.82;6.22;;;;;;;31.97;47.44;100807.50;4212916;28;20101;-66
2022/07/20 09:18:02;;;;;;;6.82;6.22;;;;;;;31.96;47.65;100811.53;4199671;28;20052;-66
2022/07/20 09:20:09;;;;;;;6.40;5.85;;;;;;;31.97;47.58;100808.31;4198395;28;20028;-67
2022/07/20 09:22:32;;;;;;;6.75;6.18;;;;;;;31.94;47.65;100813.91;4198517;28;20495;-66
2022/07/20 09:24:36;;;;;;;6.55;5.95;;;;;;;31.95;47.42;100810.69;4198660;28;20040;-66
2022/07/20 09:26:38;;;;;;;6.50;6.00;;;;;;;31.95;47.34;100815.53;4198188;28;20040;-66
2022/07/20 09:28:44;;;;;;;6.40;5.80;;;;;;;31.86;47.44;100801.53;4198160;28;20040;-66